sensor_id;sensor_type;location;lat;lon;timestamp;P1;durP1;ratioP1;P2;durP2;ratioP2
53521;SDS011;39398;48.382;9.802;2022-11-20T00:00:55;5.70;;;2.75;;
53521;SDS011;39398;48.382;9.802;2022-11-20T00:01:56;2.90;;;2.47;;
53521;SDS011;39398;48.382;9.802;2022-11-20T00:02:58;4.90;;;3.47;;
53521;SDS011;39398;48.382;9.802;2022-11-20T00:03:59;4.85;;;3.00;;
53521;SDS011;39398;48.382;9.802;2022-11-20T00:05:01;4.38;;;3.53;;
53521;SDS011;39398;48.382;9.802;2022-11-20T00:06:03;4.93;;;3.15;;
53521;SDS011;39398;48.382;9.802;2022-11-20T00:07:06;5.55;;;3.40;;
53521;SDS011;39398;48.382;9.802;2022-11-20T00:08:07;5.15;;;3.40;;
53521;SDS011;39398;48.382;9.802;2022-11-20T00:09:09;4.68;;;2.97;;
53521;SDS011;39398;48.382;9.802;2022-11-20T00:10:11;5.15;;;3.30;;
53521;SDS011;39398;48.382;9.802;2022-11-20T00:11:13;6.55;;;3.55;;
53521;SDS011;39398;48.382;9.802;2022-11-20T00:12:17;5.38;;;3.70;;
53521;SDS011;39398;48.382;9.802;2022-11-20T00:13:18;5.00;;;3.55;;
53521;SDS011;39398;48.382;9.802;2022-11-20T00:14:21;9.68;;;3.67;;
53521;SDS011;39398;48.382;9.802;2022-11-20T00:15:22;3.53;;;3.20;;
53521;SDS011;39398;48.382;9.802;2022-11-20T00:16:24;5.97;;;3.83;;
53521;SDS011;39398;48.382;9.802;2022-11-20T00:17:27;4.35;;;3.40;;
53521;SDS011;39398;48.382;9.802;2022-11-20T00:18:28;7.30;;;3.60;;
53521;SDS011;39398;48.382;9.802;2022-11-20T00:19:30;5.13;;;3.10;;
53521;SDS011;39398;48.382;9.802;2022-11-20T00:20:32;5.78;;;3.97;;
53521;SDS011;39398;48.382;9.802;2022-11-20T00:21:33;4.10;;;3.30;;
53521;SDS011;39398;48.382;9.802;2022-11-20T00:22:35;6.15;;;3.85;;
53521;SDS011;39398;48.382;9.802;2022-11-20T00:23:36;4.45;;;3.17;;
53521;SDS011;39398;48.382;9.802;2022-11-20T00:24:38;5.05;;;3.70;;
53521;SDS011;39398;48.382;9.802;2022-11-20T00:25:43;3.70;;;3.40;;
53521;SDS011;39398;48.382;9.802;2022-11-20T00:26:44;6.55;;;3.50;;
53521;SDS011;39398;48.382;9.802;2022-11-20T00:27:46;4.10;;;3.28;;
53521;SDS011;39398;48.382;9.802;2022-11-20T00:28:49;5.80;;;3.00;;
53521;SDS011;39398;48.382;9.802;2022-11-20T00:29:52;5.15;;;3.58;;
53521;SDS011;39398;48.382;9.802;2022-11-20T00:30:59;5.07;;;3.63;;
53521;SDS011;39398;48.382;9.802;2022-11-20T00:32:02;5.70;;;3.75;;
53521;SDS011;39398;48.382;9.802;2022-11-20T00:33:03;4.90;;;3.50;;
53521;SDS011;39398;48.382;9.802;2022-11-20T00:34:05;4.30;;;3.20;;
53521;SDS011;39398;48.382;9.802;2022-11-20T00:35:06;4.88;;;3.80;;
53521;SDS011;39398;48.382;9.802;2022-11-20T00:36:09;7.03;;;3.75;;
53521;SDS011;39398;48.382;9.802;2022-11-20T00:37:12;5.85;;;3.97;;
53521;SDS011;39398;48.382;9.802;2022-11-20T00:38:13;3.67;;;3.33;;
53521;SDS011;39398;48.382;9.802;2022-11-20T00:39:14;4.80;;;3.72;;
53521;SDS011;39398;48.382;9.802;2022-11-20T00:40:16;6.47;;;3.60;;
53521;SDS011;39398;48.382;9.802;2022-11-20T00:41:17;6.70;;;3.70;;
53521;SDS011;39398;48.382;9.802;2022-11-20T00:42:19;6.68;;;3.33;;
53521;SDS011;39398;48.382;9.802;2022-11-20T00:43:20;4.18;;;3.30;;
53521;SDS011;39398;48.382;9.802;2022-11-20T00:44:22;4.82;;;3.47;;
53521;SDS011;39398;48.382;9.802;2022-11-20T00:45:25;6.38;;;3.55;;
53521;SDS011;39398;48.382;9.802;2022-11-20T00:46:27;7.30;;;3.70;;
53521;SDS011;39398;48.382;9.802;2022-11-20T00:47:29;4.93;;;3.50;;
53521;SDS011;39398;48.382;9.802;2022-11-20T00:48:30;4.75;;;3.33;;
53521;SDS011;39398;48.382;9.802;2022-11-20T00:49:32;4.60;;;3.08;;
53521;SDS011;39398;48.382;9.802;2022-11-20T00:50:34;4.35;;;3.08;;
53521;SDS011;39398;48.382;9.802;2022-11-20T00:51:35;7.63;;;3.80;;
53521;SDS011;39398;48.382;9.802;2022-11-20T00:52:37;8.40;;;5.03;;
53521;SDS011;39398;48.382;9.802;2022-11-20T00:53:38;7.72;;;4.70;;
53521;SDS011;39398;48.382;9.802;2022-11-20T00:54:40;7.95;;;4.53;;
53521;SDS011;39398;48.382;9.802;2022-11-20T00:55:41;7.90;;;4.80;;
53521;SDS011;39398;48.382;9.802;2022-11-20T00:56:42;9.32;;;4.68;;
53521;SDS011;39398;48.382;9.802;2022-11-20T00:57:44;8.93;;;4.88;;
53521;SDS011;39398;48.382;9.802;2022-11-20T00:58:46;7.60;;;4.93;;
53521;SDS011;39398;48.382;9.802;2022-11-20T00:59:49;7.25;;;4.75;;
53521;SDS011;39398;48.382;9.802;2022-11-20T01:00:51;10.85;;;4.50;;
53521;SDS011;39398;48.382;9.802;2022-11-20T01:01:53;8.25;;;4.78;;
53521;SDS011;39398;48.382;9.802;2022-11-20T01:02:55;7.03;;;4.20;;
53521;SDS011;39398;48.382;9.802;2022-11-20T01:03:57;7.05;;;4.30;;
53521;SDS011;39398;48.382;9.802;2022-11-20T01:05:00;6.82;;;4.72;;
53521;SDS011;39398;48.382;9.802;2022-11-20T01:06:01;8.50;;;4.30;;
53521;SDS011;39398;48.382;9.802;2022-11-20T01:07:04;7.43;;;4.63;;
53521;SDS011;39398;48.382;9.802;2022-11-20T01:08:05;7.35;;;4.30;;
53521;SDS011;39398;48.382;9.802;2022-11-20T01:09:08;6.30;;;4.18;;
53521;SDS011;39398;48.382;9.802;2022-11-20T01:10:13;8.32;;;4.43;;
53521;SDS011;39398;48.382;9.802;2022-11-20T01:11:16;5.80;;;4.28;;
53521;SDS011;39398;48.382;9.802;2022-11-20T01:12:18;6.25;;;4.07;;
53521;SDS011;39398;48.382;9.802;2022-11-20T01:13:20;8.02;;;4.78;;
53521;SDS011;39398;48.382;9.802;2022-11-20T01:14:25;7.65;;;4.78;;
53521;SDS011;39398;48.382;9.802;2022-11-20T01:15:27;6.47;;;4.07;;
53521;SDS011;39398;48.382;9.802;2022-11-20T01:16:30;7.45;;;4.35;;
53521;SDS011;39398;48.382;9.802;2022-11-20T01:17:33;9.82;;;4.82;;
53521;SDS011;39398;48.382;9.802;2022-11-20T01:18:35;7.65;;;3.90;;
53521;SDS011;39398;48.382;9.802;2022-11-20T01:19:37;9.40;;;4.65;;
53521;SDS011;39398;48.382;9.802;2022-11-20T01:20:39;7.78;;;4.10;;
53521;SDS011;39398;48.382;9.802;2022-11-20T01:21:41;6.88;;;4.70;;
53521;SDS011;39398;48.382;9.802;2022-11-20T01:22:44;5.03;;;3.88;;
53521;SDS011;39398;48.382;9.802;2022-11-20T01:23:45;9.77;;;4.68;;
53521;SDS011;39398;48.382;9.802;2022-11-20T01:24:48;9.68;;;3.92;;
53521;SDS011;39398;48.382;9.802;2022-11-20T01:25:49;9.80;;;4.68;;
53521;SDS011;39398;48.382;9.802;2022-11-20T01:26:51;6.32;;;4.30;;
53521;SDS011;39398;48.382;9.802;2022-11-20T01:27:52;8.93;;;4.50;;
53521;SDS011;39398;48.382;9.802;2022-11-20T01:28:54;6.22;;;4.55;;
53521;SDS011;39398;48.382;9.802;2022-11-20T01:29:56;7.15;;;4.43;;
53521;SDS011;39398;48.382;9.802;2022-11-20T01:31:01;6.65;;;4.38;;
53521;SDS011;39398;48.382;9.802;2022-11-20T01:32:13;6.78;;;4.38;;
53521;SDS011;39398;48.382;9.802;2022-11-20T01:33:14;7.47;;;4.38;;
53521;SDS011;39398;48.382;9.802;2022-11-20T01:34:17;7.70;;;4.40;;
53521;SDS011;39398;48.382;9.802;2022-11-20T01:35:19;7.75;;;4.03;;
53521;SDS011;39398;48.382;9.802;2022-11-20T01:36:21;7.13;;;4.55;;
53521;SDS011;39398;48.382;9.802;2022-11-20T01:37:25;8.43;;;4.65;;
53521;SDS011;39398;48.382;9.802;2022-11-20T01:38:27;8.80;;;4.55;;
53521;SDS011;39398;48.382;9.802;2022-11-20T01:39:28;7.00;;;4.07;;
53521;SDS011;39398;48.382;9.802;2022-11-20T01:40:30;7.45;;;4.35;;
53521;SDS011;39398;48.382;9.802;2022-11-20T01:41:32;6.95;;;4.57;;
53521;SDS011;39398;48.382;9.802;2022-11-20T01:42:35;8.23;;;4.60;;
53521;SDS011;39398;48.382;9.802;2022-11-20T01:43:36;5.72;;;4.35;;
53521;SDS011;39398;48.382;9.802;2022-11-20T01:44:51;5.03;;;4.03;;
53521;SDS011;39398;48.382;9.802;2022-11-20T01:45:58;8.00;;;4.30;;
53521;SDS011;39398;48.382;9.802;2022-11-20T01:47:02;5.55;;;3.80;;
53521;SDS011;39398;48.382;9.802;2022-11-20T01:48:07;6.30;;;3.90;;
53521;SDS011;39398;48.382;9.802;2022-11-20T01:49:10;7.15;;;4.30;;
53521;SDS011;39398;48.382;9.802;2022-11-20T01:50:16;7.95;;;4.18;;
53521;SDS011;39398;48.382;9.802;2022-11-20T01:51:25;6.32;;;3.80;;
53521;SDS011;39398;48.382;9.802;2022-11-20T01:52:31;6.95;;;4.10;;
53521;SDS011;39398;48.382;9.802;2022-11-20T01:53:35;6.85;;;4.30;;
53521;SDS011;39398;48.382;9.802;2022-11-20T01:54:38;7.05;;;4.30;;
53521;SDS011;39398;48.382;9.802;2022-11-20T01:55:44;8.63;;;4.55;;
53521;SDS011;39398;48.382;9.802;2022-11-20T01:56:50;8.52;;;4.45;;
53521;SDS011;39398;48.382;9.802;2022-11-20T01:57:52;5.70;;;4.18;;
53521;SDS011;39398;48.382;9.802;2022-11-20T01:58:56;8.70;;;4.10;;
53521;SDS011;39398;48.382;9.802;2022-11-20T02:00:00;8.60;;;4.70;;
53521;SDS011;39398;48.382;9.802;2022-11-20T02:01:04;7.90;;;4.65;;
53521;SDS011;39398;48.382;9.802;2022-11-20T02:02:06;6.15;;;4.45;;
53521;SDS011;39398;48.382;9.802;2022-11-20T02:03:10;6.88;;;4.57;;
53521;SDS011;39398;48.382;9.802;2022-11-20T02:04:13;7.40;;;4.75;;
53521;SDS011;39398;48.382;9.802;2022-11-20T02:05:18;7.53;;;4.63;;
53521;SDS011;39398;48.382;9.802;2022-11-20T02:06:24;7.03;;;4.82;;
53521;SDS011;39398;48.382;9.802;2022-11-20T02:07:28;5.40;;;4.45;;
53521;SDS011;39398;48.382;9.802;2022-11-20T02:08:31;6.60;;;4.22;;
53521;SDS011;39398;48.382;9.802;2022-11-20T02:09:33;5.15;;;4.07;;
53521;SDS011;39398;48.382;9.802;2022-11-20T02:10:35;8.02;;;4.75;;
53521;SDS011;39398;48.382;9.802;2022-11-20T02:11:36;8.70;;;4.57;;
53521;SDS011;39398;48.382;9.802;2022-11-20T02:12:38;9.43;;;4.70;;
53521;SDS011;39398;48.382;9.802;2022-11-20T02:13:39;6.40;;;4.70;;
53521;SDS011;39398;48.382;9.802;2022-11-20T02:14:41;6.90;;;4.60;;
53521;SDS011;39398;48.382;9.802;2022-11-20T02:15:43;6.63;;;4.20;;
53521;SDS011;39398;48.382;9.802;2022-11-20T02:16:45;6.95;;;4.53;;
53521;SDS011;39398;48.382;9.802;2022-11-20T02:17:48;6.63;;;4.38;;
53521;SDS011;39398;48.382;9.802;2022-11-20T02:18:51;7.63;;;4.03;;
53521;SDS011;39398;48.382;9.802;2022-11-20T02:19:54;7.95;;;4.18;;
53521;SDS011;39398;48.382;9.802;2022-11-20T02:20:57;4.97;;;4.07;;
53521;SDS011;39398;48.382;9.802;2022-11-20T02:22:04;6.97;;;4.85;;
53521;SDS011;39398;48.382;9.802;2022-11-20T02:23:12;6.78;;;4.72;;
53521;SDS011;39398;48.382;9.802;2022-11-20T02:24:21;6.60;;;4.57;;
53521;SDS011;39398;48.382;9.802;2022-11-20T02:25:23;9.60;;;4.95;;
53521;SDS011;39398;48.382;9.802;2022-11-20T02:26:27;6.45;;;4.85;;
53521;SDS011;39398;48.382;9.802;2022-11-20T02:27:30;7.90;;;4.80;;
53521;SDS011;39398;48.382;9.802;2022-11-20T02:28:32;9.57;;;5.47;;
53521;SDS011;39398;48.382;9.802;2022-11-20T02:29:34;6.63;;;4.60;;
53521;SDS011;39398;48.382;9.802;2022-11-20T02:30:39;5.88;;;4.63;;
53521;SDS011;39398;48.382;9.802;2022-11-20T02:31:41;10.43;;;5.03;;
53521;SDS011;39398;48.382;9.802;2022-11-20T02:32:44;7.20;;;5.05;;
53521;SDS011;39398;48.382;9.802;2022-11-20T02:33:45;6.25;;;4.75;;
53521;SDS011;39398;48.382;9.802;2022-11-20T02:34:47;6.10;;;4.80;;
53521;SDS011;39398;48.382;9.802;2022-11-20T02:35:49;9.00;;;5.47;;
53521;SDS011;39398;48.382;9.802;2022-11-20T02:36:50;5.68;;;4.55;;
53521;SDS011;39398;48.382;9.802;2022-11-20T02:37:54;7.43;;;5.20;;
53521;SDS011;39398;48.382;9.802;2022-11-20T02:38:57;8.77;;;4.70;;
53521;SDS011;39398;48.382;9.802;2022-11-20T02:40:00;7.88;;;5.20;;
53521;SDS011;39398;48.382;9.802;2022-11-20T02:41:01;7.28;;;4.90;;
53521;SDS011;39398;48.382;9.802;2022-11-20T02:42:03;8.52;;;5.72;;
53521;SDS011;39398;48.382;9.802;2022-11-20T02:43:04;6.20;;;4.38;;
53521;SDS011;39398;48.382;9.802;2022-11-20T02:44:06;9.02;;;4.97;;
53521;SDS011;39398;48.382;9.802;2022-11-20T02:45:08;8.63;;;5.03;;
53521;SDS011;39398;48.382;9.802;2022-11-20T02:46:10;7.85;;;5.38;;
53521;SDS011;39398;48.382;9.802;2022-11-20T02:47:11;7.75;;;4.93;;
53521;SDS011;39398;48.382;9.802;2022-11-20T02:48:13;8.57;;;5.10;;
53521;SDS011;39398;48.382;9.802;2022-11-20T02:49:14;7.53;;;4.68;;
53521;SDS011;39398;48.382;9.802;2022-11-20T02:50:16;7.95;;;5.30;;
53521;SDS011;39398;48.382;9.802;2022-11-20T02:51:17;8.07;;;5.53;;
53521;SDS011;39398;48.382;9.802;2022-11-20T02:52:19;7.30;;;5.43;;
53521;SDS011;39398;48.382;9.802;2022-11-20T02:53:20;8.68;;;5.47;;
53521;SDS011;39398;48.382;9.802;2022-11-20T02:54:22;8.63;;;5.25;;
53521;SDS011;39398;48.382;9.802;2022-11-20T02:55:25;8.02;;;5.50;;
53521;SDS011;39398;48.382;9.802;2022-11-20T02:56:26;7.32;;;5.05;;
53521;SDS011;39398;48.382;9.802;2022-11-20T02:57:28;8.13;;;5.60;;
53521;SDS011;39398;48.382;9.802;2022-11-20T02:58:30;8.90;;;5.53;;
53521;SDS011;39398;48.382;9.802;2022-11-20T02:59:31;10.13;;;5.43;;
53521;SDS011;39398;48.382;9.802;2022-11-20T03:00:33;8.15;;;5.32;;
53521;SDS011;39398;48.382;9.802;2022-11-20T03:01:34;7.25;;;5.18;;
53521;SDS011;39398;48.382;9.802;2022-11-20T03:02:36;8.05;;;5.70;;
53521;SDS011;39398;48.382;9.802;2022-11-20T03:03:37;9.85;;;5.75;;
53521;SDS011;39398;48.382;9.802;2022-11-20T03:04:39;9.77;;;5.30;;
53521;SDS011;39398;48.382;9.802;2022-11-20T03:05:40;9.88;;;5.60;;
53521;SDS011;39398;48.382;9.802;2022-11-20T03:06:42;9.35;;;6.00;;
53521;SDS011;39398;48.382;9.802;2022-11-20T03:07:43;8.38;;;5.88;;
53521;SDS011;39398;48.382;9.802;2022-11-20T03:08:45;10.35;;;5.45;;
53521;SDS011;39398;48.382;9.802;2022-11-20T03:09:46;8.52;;;5.65;;
53521;SDS011;39398;48.382;9.802;2022-11-20T03:10:49;8.18;;;5.38;;
53521;SDS011;39398;48.382;9.802;2022-11-20T03:11:50;9.50;;;5.75;;
53521;SDS011;39398;48.382;9.802;2022-11-20T03:12:52;7.63;;;5.70;;
53521;SDS011;39398;48.382;9.802;2022-11-20T03:13:55;7.90;;;5.53;;
53521;SDS011;39398;48.382;9.802;2022-11-20T03:14:56;7.75;;;5.25;;
53521;SDS011;39398;48.382;9.802;2022-11-20T03:15:58;8.75;;;5.10;;
53521;SDS011;39398;48.382;9.802;2022-11-20T03:16:59;9.05;;;5.53;;
53521;SDS011;39398;48.382;9.802;2022-11-20T03:18:01;8.15;;;5.68;;
53521;SDS011;39398;48.382;9.802;2022-11-20T03:19:02;7.68;;;5.22;;
53521;SDS011;39398;48.382;9.802;2022-11-20T03:20:04;9.35;;;5.43;;
53521;SDS011;39398;48.382;9.802;2022-11-20T03:21:07;7.40;;;5.45;;
53521;SDS011;39398;48.382;9.802;2022-11-20T03:22:09;8.50;;;5.30;;
53521;SDS011;39398;48.382;9.802;2022-11-20T03:23:10;7.70;;;5.00;;
53521;SDS011;39398;48.382;9.802;2022-11-20T03:24:12;8.02;;;4.80;;
53521;SDS011;39398;48.382;9.802;2022-11-20T03:25:13;8.85;;;5.07;;
53521;SDS011;39398;48.382;9.802;2022-11-20T03:26:16;8.02;;;5.28;;
53521;SDS011;39398;48.382;9.802;2022-11-20T03:27:19;10.93;;;5.55;;
53521;SDS011;39398;48.382;9.802;2022-11-20T03:28:21;7.93;;;5.30;;
53521;SDS011;39398;48.382;9.802;2022-11-20T03:29:22;9.70;;;5.47;;
53521;SDS011;39398;48.382;9.802;2022-11-20T03:30:24;6.65;;;5.03;;
53521;SDS011;39398;48.382;9.802;2022-11-20T03:31:31;7.80;;;5.00;;
53521;SDS011;39398;48.382;9.802;2022-11-20T03:32:34;7.28;;;5.15;;
53521;SDS011;39398;48.382;9.802;2022-11-20T03:33:35;6.93;;;5.07;;
53521;SDS011;39398;48.382;9.802;2022-11-20T03:34:37;7.05;;;5.32;;
53521;SDS011;39398;48.382;9.802;2022-11-20T03:35:38;9.93;;;5.05;;
53521;SDS011;39398;48.382;9.802;2022-11-20T03:36:40;8.70;;;5.00;;
53521;SDS011;39398;48.382;9.802;2022-11-20T03:37:43;7.93;;;5.30;;
53521;SDS011;39398;48.382;9.802;2022-11-20T03:38:45;8.10;;;5.20;;
53521;SDS011;39398;48.382;9.802;2022-11-20T03:39:46;7.22;;;5.05;;
53521;SDS011;39398;48.382;9.802;2022-11-20T03:40:48;7.63;;;4.97;;
53521;SDS011;39398;48.382;9.802;2022-11-20T03:41:51;7.88;;;4.70;;
53521;SDS011;39398;48.382;9.802;2022-11-20T03:42:52;7.40;;;4.93;;
53521;SDS011;39398;48.382;9.802;2022-11-20T03:43:54;6.95;;;4.75;;
53521;SDS011;39398;48.382;9.802;2022-11-20T03:44:57;7.43;;;4.97;;
53521;SDS011;39398;48.382;9.802;2022-11-20T03:45:59;7.20;;;4.90;;
53521;SDS011;39398;48.382;9.802;2022-11-20T03:47:01;8.10;;;5.38;;
53521;SDS011;39398;48.382;9.802;2022-11-20T03:48:02;9.38;;;5.55;;
53521;SDS011;39398;48.382;9.802;2022-11-20T03:49:04;8.18;;;5.03;;
53521;SDS011;39398;48.382;9.802;2022-11-20T03:50:06;8.13;;;5.35;;
53521;SDS011;39398;48.382;9.802;2022-11-20T03:51:09;8.45;;;5.65;;
53521;SDS011;39398;48.382;9.802;2022-11-20T03:52:12;8.35;;;4.63;;
53521;SDS011;39398;48.382;9.802;2022-11-20T03:53:13;8.55;;;5.10;;
53521;SDS011;39398;48.382;9.802;2022-11-20T03:54:15;7.65;;;4.95;;
53521;SDS011;39398;48.382;9.802;2022-11-20T03:55:16;7.43;;;4.22;;
53521;SDS011;39398;48.382;9.802;2022-11-20T03:56:19;7.32;;;5.40;;
53521;SDS011;39398;48.382;9.802;2022-11-20T03:57:24;6.70;;;4.80;;
53521;SDS011;39398;48.382;9.802;2022-11-20T03:58:25;8.35;;;5.00;;
53521;SDS011;39398;48.382;9.802;2022-11-20T03:59:27;9.90;;;4.72;;
53521;SDS011;39398;48.382;9.802;2022-11-20T04:00:28;7.88;;;4.82;;
53521;SDS011;39398;48.382;9.802;2022-11-20T04:01:31;8.55;;;5.50;;
53521;SDS011;39398;48.382;9.802;2022-11-20T04:02:33;7.00;;;5.15;;
53521;SDS011;39398;48.382;9.802;2022-11-20T04:03:35;5.57;;;4.35;;
53521;SDS011;39398;48.382;9.802;2022-11-20T04:04:37;8.57;;;5.05;;
53521;SDS011;39398;48.382;9.802;2022-11-20T04:05:38;6.65;;;5.13;;
53521;SDS011;39398;48.382;9.802;2022-11-20T04:06:40;8.25;;;4.85;;
53521;SDS011;39398;48.382;9.802;2022-11-20T04:07:41;8.73;;;4.75;;
53521;SDS011;39398;48.382;9.802;2022-11-20T04:08:43;5.57;;;4.57;;
53521;SDS011;39398;48.382;9.802;2022-11-20T04:09:49;7.97;;;4.88;;
53521;SDS011;39398;48.382;9.802;2022-11-20T04:10:51;6.53;;;4.78;;
53521;SDS011;39398;48.382;9.802;2022-11-20T04:11:52;9.73;;;4.50;;
53521;SDS011;39398;48.382;9.802;2022-11-20T04:12:55;6.50;;;5.03;;
53521;SDS011;39398;48.382;9.802;2022-11-20T04:13:57;7.60;;;5.25;;
53521;SDS011;39398;48.382;9.802;2022-11-20T04:15:00;8.25;;;4.93;;
53521;SDS011;39398;48.382;9.802;2022-11-20T04:16:01;8.05;;;4.90;;
53521;SDS011;39398;48.382;9.802;2022-11-20T04:17:03;8.10;;;5.38;;
53521;SDS011;39398;48.382;9.802;2022-11-20T04:18:04;8.45;;;4.70;;
53521;SDS011;39398;48.382;9.802;2022-11-20T04:19:08;9.00;;;5.38;;
53521;SDS011;39398;48.382;9.802;2022-11-20T04:20:11;6.65;;;4.90;;
53521;SDS011;39398;48.382;9.802;2022-11-20T04:21:13;8.00;;;5.65;;
53521;SDS011;39398;48.382;9.802;2022-11-20T04:22:14;7.90;;;5.28;;
53521;SDS011;39398;48.382;9.802;2022-11-20T04:23:15;7.45;;;5.05;;
53521;SDS011;39398;48.382;9.802;2022-11-20T04:24:17;7.35;;;5.25;;
53521;SDS011;39398;48.382;9.802;2022-11-20T04:25:18;7.70;;;5.40;;
53521;SDS011;39398;48.382;9.802;2022-11-20T04:26:20;9.60;;;5.63;;
53521;SDS011;39398;48.382;9.802;2022-11-20T04:27:23;7.70;;;4.68;;
53521;SDS011;39398;48.382;9.802;2022-11-20T04:28:26;7.90;;;5.30;;
53521;SDS011;39398;48.382;9.802;2022-11-20T04:29:27;7.88;;;5.43;;
53521;SDS011;39398;48.382;9.802;2022-11-20T04:30:29;7.88;;;5.50;;
53521;SDS011;39398;48.382;9.802;2022-11-20T04:31:31;8.57;;;5.45;;
53521;SDS011;39398;48.382;9.802;2022-11-20T04:32:34;7.75;;;5.07;;
53521;SDS011;39398;48.382;9.802;2022-11-20T04:33:36;6.63;;;5.15;;
53521;SDS011;39398;48.382;9.802;2022-11-20T04:34:38;7.47;;;5.53;;
53521;SDS011;39398;48.382;9.802;2022-11-20T04:35:40;7.55;;;5.28;;
53521;SDS011;39398;48.382;9.802;2022-11-20T04:36:41;9.45;;;4.85;;
53521;SDS011;39398;48.382;9.802;2022-11-20T04:37:43;7.40;;;5.30;;
53521;SDS011;39398;48.382;9.802;2022-11-20T04:38:44;9.65;;;5.45;;
53521;SDS011;39398;48.382;9.802;2022-11-20T04:39:46;8.95;;;5.28;;
53521;SDS011;39398;48.382;9.802;2022-11-20T04:40:47;7.97;;;4.90;;
53521;SDS011;39398;48.382;9.802;2022-11-20T04:41:49;9.90;;;5.40;;
53521;SDS011;39398;48.382;9.802;2022-11-20T04:42:50;10.18;;;5.40;;
53521;SDS011;39398;48.382;9.802;2022-11-20T04:43:53;6.03;;;4.78;;
53521;SDS011;39398;48.382;9.802;2022-11-20T04:44:56;7.47;;;5.25;;
53521;SDS011;39398;48.382;9.802;2022-11-20T04:45:58;9.65;;;5.38;;
53521;SDS011;39398;48.382;9.802;2022-11-20T04:47:00;10.48;;;5.43;;
53521;SDS011;39398;48.382;9.802;2022-11-20T04:48:02;10.10;;;5.35;;
53521;SDS011;39398;48.382;9.802;2022-11-20T04:49:04;8.30;;;5.95;;
53521;SDS011;39398;48.382;9.802;2022-11-20T04:50:06;8.63;;;5.32;;
53521;SDS011;39398;48.382;9.802;2022-11-20T04:51:08;10.88;;;5.90;;
53521;SDS011;39398;48.382;9.802;2022-11-20T04:52:09;10.32;;;6.15;;
53521;SDS011;39398;48.382;9.802;2022-11-20T04:53:11;8.48;;;5.45;;
53521;SDS011;39398;48.382;9.802;2022-11-20T04:54:12;11.75;;;5.65;;
53521;SDS011;39398;48.382;9.802;2022-11-20T04:55:14;8.43;;;5.03;;
53521;SDS011;39398;48.382;9.802;2022-11-20T04:56:16;7.15;;;4.60;;
53521;SDS011;39398;48.382;9.802;2022-11-20T04:57:17;7.60;;;4.95;;
53521;SDS011;39398;48.382;9.802;2022-11-20T04:58:19;8.68;;;5.60;;
53521;SDS011;39398;48.382;9.802;2022-11-20T04:59:22;6.55;;;4.90;;
53521;SDS011;39398;48.382;9.802;2022-11-20T05:00:24;8.25;;;4.93;;
53521;SDS011;39398;48.382;9.802;2022-11-20T05:01:26;7.63;;;5.53;;
53521;SDS011;39398;48.382;9.802;2022-11-20T05:02:27;10.45;;;5.32;;
53521;SDS011;39398;48.382;9.802;2022-11-20T05:03:31;9.18;;;5.60;;
53521;SDS011;39398;48.382;9.802;2022-11-20T05:04:33;8.20;;;5.85;;
53521;SDS011;39398;48.382;9.802;2022-11-20T05:05:34;9.10;;;5.70;;
53521;SDS011;39398;48.382;9.802;2022-11-20T05:06:36;9.90;;;5.22;;
53521;SDS011;39398;48.382;9.802;2022-11-20T05:07:37;6.97;;;4.90;;
53521;SDS011;39398;48.382;9.802;2022-11-20T05:08:39;6.60;;;4.57;;
53521;SDS011;39398;48.382;9.802;2022-11-20T05:09:41;7.47;;;4.90;;
53521;SDS011;39398;48.382;9.802;2022-11-20T05:10:42;5.93;;;4.45;;
53521;SDS011;39398;48.382;9.802;2022-11-20T05:11:44;7.18;;;4.70;;
53521;SDS011;39398;48.382;9.802;2022-11-20T05:12:51;7.18;;;4.60;;
53521;SDS011;39398;48.382;9.802;2022-11-20T05:13:53;7.07;;;4.90;;
53521;SDS011;39398;48.382;9.802;2022-11-20T05:14:56;7.80;;;4.93;;
53521;SDS011;39398;48.382;9.802;2022-11-20T05:16:00;8.35;;;5.10;;
53521;SDS011;39398;48.382;9.802;2022-11-20T05:17:03;6.43;;;4.82;;
53521;SDS011;39398;48.382;9.802;2022-11-20T05:18:04;7.05;;;5.00;;
53521;SDS011;39398;48.382;9.802;2022-11-20T05:19:05;6.78;;;5.18;;
53521;SDS011;39398;48.382;9.802;2022-11-20T05:20:07;8.93;;;5.25;;
53521;SDS011;39398;48.382;9.802;2022-11-20T05:21:10;9.73;;;5.53;;
53521;SDS011;39398;48.382;9.802;2022-11-20T05:22:12;7.43;;;5.35;;
53521;SDS011;39398;48.382;9.802;2022-11-20T05:23:14;7.45;;;5.75;;
53521;SDS011;39398;48.382;9.802;2022-11-20T05:24:15;7.60;;;5.72;;
53521;SDS011;39398;48.382;9.802;2022-11-20T05:25:16;6.35;;;5.00;;
53521;SDS011;39398;48.382;9.802;2022-11-20T05:26:18;7.53;;;5.68;;
53521;SDS011;39398;48.382;9.802;2022-11-20T05:27:21;7.28;;;5.28;;
53521;SDS011;39398;48.382;9.802;2022-11-20T05:28:23;7.30;;;5.32;;
53521;SDS011;39398;48.382;9.802;2022-11-20T05:29:25;7.25;;;5.35;;
53521;SDS011;39398;48.382;9.802;2022-11-20T05:30:28;9.63;;;5.90;;
53521;SDS011;39398;48.382;9.802;2022-11-20T05:31:29;7.72;;;5.82;;
53521;SDS011;39398;48.382;9.802;2022-11-20T05:32:31;8.23;;;5.65;;
53521;SDS011;39398;48.382;9.802;2022-11-20T05:33:33;7.43;;;5.45;;
53521;SDS011;39398;48.382;9.802;2022-11-20T05:34:35;7.30;;;5.38;;
53521;SDS011;39398;48.382;9.802;2022-11-20T05:35:36;7.30;;;5.32;;
53521;SDS011;39398;48.382;9.802;2022-11-20T05:36:38;9.80;;;5.25;;
53521;SDS011;39398;48.382;9.802;2022-11-20T05:37:39;8.95;;;5.45;;
53521;SDS011;39398;48.382;9.802;2022-11-20T05:38:41;7.40;;;5.63;;
53521;SDS011;39398;48.382;9.802;2022-11-20T05:39:43;8.27;;;5.28;;
53521;SDS011;39398;48.382;9.802;2022-11-20T05:40:44;8.15;;;5.30;;
53521;SDS011;39398;48.382;9.802;2022-11-20T05:41:46;7.68;;;5.93;;
53521;SDS011;39398;48.382;9.802;2022-11-20T05:42:47;8.00;;;5.38;;
53521;SDS011;39398;48.382;9.802;2022-11-20T05:43:49;8.55;;;5.75;;
53521;SDS011;39398;48.382;9.802;2022-11-20T05:44:51;8.70;;;5.75;;
53521;SDS011;39398;48.382;9.802;2022-11-20T05:45:54;9.20;;;5.45;;
53521;SDS011;39398;48.382;9.802;2022-11-20T05:46:55;9.90;;;6.25;;
53521;SDS011;39398;48.382;9.802;2022-11-20T05:47:57;9.35;;;6.30;;
53521;SDS011;39398;48.382;9.802;2022-11-20T05:48:59;9.45;;;6.72;;
53521;SDS011;39398;48.382;9.802;2022-11-20T05:50:00;8.32;;;6.05;;
53521;SDS011;39398;48.382;9.802;2022-11-20T05:51:03;10.98;;;6.90;;
53521;SDS011;39398;48.382;9.802;2022-11-20T05:52:06;8.45;;;6.40;;
53521;SDS011;39398;48.382;9.802;2022-11-20T05:53:07;8.52;;;6.20;;
53521;SDS011;39398;48.382;9.802;2022-11-20T05:54:09;10.10;;;6.75;;
53521;SDS011;39398;48.382;9.802;2022-11-20T05:55:10;10.10;;;6.53;;
53521;SDS011;39398;48.382;9.802;2022-11-20T05:56:12;9.00;;;6.30;;
53521;SDS011;39398;48.382;9.802;2022-11-20T05:57:16;11.40;;;7.18;;
53521;SDS011;39398;48.382;9.802;2022-11-20T05:58:17;10.32;;;6.70;;
53521;SDS011;39398;48.382;9.802;2022-11-20T05:59:19;12.30;;;7.38;;
53521;SDS011;39398;48.382;9.802;2022-11-20T06:00:21;11.32;;;7.32;;
53521;SDS011;39398;48.382;9.802;2022-11-20T06:01:24;10.50;;;7.57;;
53521;SDS011;39398;48.382;9.802;2022-11-20T06:02:26;10.65;;;6.95;;
53521;SDS011;39398;48.382;9.802;2022-11-20T06:03:28;12.07;;;7.65;;
53521;SDS011;39398;48.382;9.802;2022-11-20T06:04:29;12.68;;;7.18;;
53521;SDS011;39398;48.382;9.802;2022-11-20T06:05:31;12.50;;;7.82;;
53521;SDS011;39398;48.382;9.802;2022-11-20T06:06:34;9.98;;;6.85;;
53521;SDS011;39398;48.382;9.802;2022-11-20T06:07:36;11.77;;;8.25;;
53521;SDS011;39398;48.382;9.802;2022-11-20T06:08:37;11.30;;;7.88;;
53521;SDS011;39398;48.382;9.802;2022-11-20T06:09:39;12.35;;;7.95;;
53521;SDS011;39398;48.382;9.802;2022-11-20T06:10:40;12.88;;;8.32;;
53521;SDS011;39398;48.382;9.802;2022-11-20T06:11:42;12.85;;;8.15;;
53521;SDS011;39398;48.382;9.802;2022-11-20T06:12:43;12.18;;;8.02;;
53521;SDS011;39398;48.382;9.802;2022-11-20T06:13:45;12.02;;;7.88;;
53521;SDS011;39398;48.382;9.802;2022-11-20T06:14:46;13.95;;;8.60;;